createdAt,value
2022-09-25T00:00:06.441Z,100871.84
2022-09-25T00:05:09.211Z,100869.03
2022-09-25T00:10:10.976Z,100866.38
2022-09-25T00:15:13.923Z,100871.38
2022-09-25T00:20:17.285Z,100857.31
2022-09-25T00:25:19.426Z,100856.41
2022-09-25T00:30:22.779Z,100852.13
2022-09-25T00:35:24.978Z,100845.91
2022-09-25T00:40:26.880Z,100843.25
2022-09-25T00:45:30.119Z,100840.66
2022-09-25T00:50:36.301Z,100858.25
2022-09-25T00:55:40.135Z,100852.03
2022-09-25T01:00:43.760Z,100860.72
2022-09-25T01:05:46.018Z,100854.66
2022-09-25T01:10:47.665Z,100849.53
2022-09-25T01:15:55.935Z,100842.53
2022-09-25T01:21:28.294Z,100838.16
2022-09-25T01:26:55.971Z,100840.91
2022-09-25T01:32:02.302Z,100836.53
2022-09-25T01:37:08.358Z,100834.78
2022-09-25T01:42:18.671Z,100835.53
2022-09-25T01:47:26.862Z,100833.84
2022-09-25T01:52:33.291Z,100831.22
2022-09-25T01:57:40.770Z,100830.47
2022-09-25T02:02:48.747Z,100825.19
2022-09-25T02:07:55.014Z,100827.13
2022-09-25T02:13:02.897Z,100825.44
2022-09-25T02:18:09.118Z,100823.75
2022-09-25T02:23:17.785Z,100825.56
2022-09-25T02:28:19.896Z,100813.16
2022-09-25T02:33:23.256Z,100818.59
2022-09-25T02:38:24.900Z,100816.84
2022-09-25T02:43:36.542Z,100820.44
2022-09-25T02:48:49.876Z,100816.94
2022-09-25T02:53:55.829Z,100814.38
2022-09-25T02:59:02.358Z,100816.25
2022-09-25T03:04:07.048Z,100816.28
2022-09-25T03:09:11.211Z,100815.47
2022-09-25T03:14:13.010Z,100813.75
2022-09-25T03:19:16.462Z,100820.78
2022-09-25T03:24:18.484Z,100815.56
2022-09-25T03:29:20.930Z,100806.75
2022-09-25T03:34:23.865Z,100812.13
2022-09-25T03:39:25.656Z,100812.22
2022-09-25T03:44:27.523Z,100812.31
2022-09-25T03:49:30.938Z,100803.53
2022-09-25T03:54:32.923Z,100806.28
2022-09-25T03:59:34.871Z,100788.72
2022-09-25T04:04:37.996Z,100786.97
2022-09-25T04:09:39.968Z,100786.13
2022-09-25T04:14:41.988Z,100787.94
2022-09-25T04:19:45.299Z,100790.59
2022-09-25T04:24:47.311Z,100799.50
2022-09-25T04:29:50.120Z,100805.72
2022-09-25T04:34:53.321Z,100803.19
2022-09-25T04:39:55.769Z,100793.53
2022-09-25T04:44:58.058Z,100795.31
2022-09-25T04:50:01.522Z,100798.84
2022-09-25T04:55:03.835Z,100795.31
2022-09-25T05:00:06.901Z,100802.41
2022-09-25T05:05:10.243Z,100798.00
2022-09-25T05:10:12.254Z,100807.69
2022-09-25T05:15:15.014Z,100809.44
2022-09-25T05:20:18.016Z,100809.28
2022-09-25T05:25:19.664Z,100811.72
2022-09-25T05:30:21.615Z,100815.06
2022-09-25T05:35:25.981Z,100821.25
2022-09-25T05:40:27.916Z,100828.38
2022-09-25T05:45:30.155Z,100827.41
2022-09-25T05:50:33.736Z,100817.63
2022-09-25T05:55:35.343Z,100821.09
2022-09-25T06:00:37.868Z,100824.50
2022-09-25T06:05:41.246Z,100811.97
2022-09-25T06:10:42.912Z,100813.53
2022-09-25T06:15:44.967Z,100809.91
2022-09-25T06:20:48.625Z,100814.00
2022-09-25T06:25:50.218Z,100805.69
2022-09-25T06:30:51.944Z,100806.09
2022-09-25T06:35:54.954Z,100805.66
2022-09-25T06:41:00.412Z,100813.56
2022-09-25T06:46:03.535Z,100802.81
2022-09-25T06:51:06.942Z,100812.88
2022-09-25T06:56:10.360Z,100811.91
2022-09-25T07:01:12.116Z,100814.53
2022-09-25T07:06:16.851Z,100822.09
2022-09-25T07:11:21.244Z,100813.41
2022-09-25T07:16:25.589Z,100814.59
2022-09-25T07:21:29.128Z,100805.06
2022-09-25T07:26:30.901Z,100801.78
2022-09-25T07:31:34.730Z,100797.13
2022-09-25T07:36:39.383Z,100806.25
2022-09-25T07:41:41.444Z,100802.22
2022-09-25T07:46:43.577Z,100810.38
2022-09-25T07:51:46.897Z,100810.72
2022-09-25T07:56:48.622Z,100818.31
2022-09-25T08:01:53.927Z,100804.19
2022-09-25T08:06:58.381Z,100790.47
2022-09-25T08:12:00.110Z,100808.69
2022-09-25T08:17:02.288Z,100800.69
2022-09-25T08:22:05.748Z,100805.13
2022-09-25T08:27:07.767Z,100800.44
2022-09-25T08:32:09.487Z,100793.72
2022-09-25T08:37:12.736Z,100801.72
2022-09-25T08:42:20.259Z,100791.69
2022-09-25T08:47:24.733Z,100790.38
2022-09-25T08:52:27.847Z,100792.03
2022-09-25T08:57:34.007Z,100790.81
2022-09-25T09:02:42.350Z,100800.22
2022-09-25T09:07:52.964Z,100792.63
2022-09-25T09:13:00.704Z,100792.16
2022-09-25T09:18:16.385Z,100793.03
2022-09-25T09:23:22.044Z,100789.16
2022-09-25T09:28:57.678Z,100782.00
2022-09-25T09:34:46.552Z,100777.25
2022-09-25T09:40:05.972Z,100777.50
2022-09-25T09:45:16.202Z,100774.75
2022-09-25T09:50:29.202Z,100767.56
2022-09-25T09:55:40.448Z,100767.66
2022-09-25T10:00:43.113Z,100761.69
2022-09-25T10:05:47.649Z,100756.66
2022-09-25T10:10:53.070Z,100743.94
2022-09-25T10:16:00.220Z,100749.84
2022-09-25T10:21:10.204Z,100740.84
2022-09-25T10:26:29.203Z,100747.97
2022-09-25T10:31:33.070Z,100748.25
2022-09-25T10:36:39.981Z,100744.34
2022-09-25T10:41:44.198Z,100741.88
2022-09-25T10:46:45.835Z,100749.81
2022-09-25T10:52:02.642Z,100743.72
2022-09-25T10:57:17.093Z,100742.63
2022-09-25T11:02:29.405Z,100737.81
2022-09-25T11:07:31.860Z,100740.28
2022-09-25T11:12:34.964Z,100726.19
2022-09-25T11:17:39.909Z,100733.47
2022-09-25T11:22:46.295Z,100731.78
2022-09-25T11:27:54.311Z,100719.22
2022-09-25T11:33:04.351Z,100710.16
2022-09-25T11:38:16.903Z,100709.56
2022-09-25T11:43:30.327Z,100699.69
2022-09-25T11:48:42.607Z,100703.63
2022-09-25T11:53:53.264Z,100694.50
2022-09-25T11:59:23.582Z,100691.75
2022-09-25T12:04:45.886Z,100679.97
2022-09-25T12:10:06.767Z,100675.84
2022-09-25T12:15:22.177Z,100677.84
2022-09-25T12:20:33.681Z,100663.16
2022-09-25T12:25:48.187Z,100666.38
2022-09-25T12:31:05.432Z,100660.53
2022-09-25T12:36:12.841Z,100665.88
2022-09-25T12:41:20.955Z,100670.97
2022-09-25T12:46:28.310Z,100657.50
2022-09-25T12:51:36.834Z,100653.94
2022-09-25T12:56:46.187Z,100647.75
2022-09-25T13:01:58.203Z,100633.06
2022-09-25T13:07:08.460Z,100628.34
2022-09-25T13:12:19.264Z,100634.25
2022-09-25T13:17:22.995Z,100635.75
2022-09-25T13:22:26.411Z,100643.53
2022-09-25T13:27:39.896Z,100641.88
2022-09-25T13:32:49.002Z,100635.56
2022-09-25T13:37:54.942Z,100630.53
2022-09-25T13:43:16.747Z,100623.66
2022-09-25T13:48:35.512Z,100612.84
2022-09-25T13:53:53.700Z,100604.31
2022-09-25T13:59:27.210Z,100614.78
2022-09-25T14:04:36.776Z,100604.63
2022-09-25T14:09:43.917Z,100613.63
2022-09-25T14:14:50.226Z,100613.72
2022-09-25T14:19:55.867Z,100611.00
2022-09-25T14:24:57.911Z,100600.31
2022-09-25T14:30:07.239Z,100595.16
2022-09-25T14:35:28.143Z,100586.69
2022-09-25T14:40:35.024Z,100575.25
2022-09-25T14:45:59.659Z,100584.69
2022-09-25T14:51:07.254Z,100576.06
2022-09-25T14:56:12.183Z,100579.81
2022-09-25T15:01:23.415Z,100575.78
2022-09-25T15:06:29.179Z,100575.59
2022-09-25T15:11:41.083Z,100585.66
2022-09-25T15:16:43.777Z,100585.81
2022-09-25T15:21:47.933Z,100586.31
2022-09-25T15:26:55.039Z,100577.97
2022-09-25T15:31:56.947Z,100575.22
2022-09-25T15:37:17.474Z,100571.72
2022-09-25T15:42:19.802Z,100551.81
2022-09-25T15:47:53.134Z,100568.09
2022-09-25T15:52:58.837Z,100559.75
2022-09-25T15:58:12.796Z,100556.69
2022-09-25T16:03:20.104Z,100555.06
2022-09-25T16:08:29.975Z,100563.72
2022-09-25T16:13:31.822Z,100558.44
2022-09-25T16:18:40.371Z,100552.66
2022-09-25T16:23:44.185Z,100552.13
2022-09-25T16:28:59.974Z,100556.47
2022-09-25T16:34:02.847Z,100556.97
2022-09-25T16:39:20.944Z,100563.38
2022-09-25T16:44:36.529Z,100569.03
2022-09-25T16:49:38.219Z,100564.91
2022-09-25T16:54:41.307Z,100563.28
2022-09-25T16:59:42.947Z,100564.91
2022-09-25T17:04:45.081Z,100565.34
2022-09-25T17:09:48.416Z,100560.75
2022-09-25T17:14:50.475Z,100551.88
2022-09-25T17:19:52.815Z,100551.84
2022-09-25T17:24:59.042Z,100553.91
2022-09-25T17:30:01.520Z,100547.94
2022-09-25T17:35:15.567Z,100556.59
2022-09-25T17:40:20.607Z,100562.44
2022-09-25T17:45:28.891Z,100554.72
2022-09-25T17:50:31.273Z,100551.75
2022-09-25T17:55:34.377Z,100553.00
2022-09-25T18:00:36.041Z,100555.59
2022-09-25T18:05:38.403Z,100551.28
2022-09-25T18:10:42.122Z,100568.09
2022-09-25T18:15:48.165Z,100559.47
2022-09-25T18:20:50.193Z,100562.97
2022-09-25T18:25:55.239Z,100556.41
2022-09-25T18:30:57.299Z,100558.22
2022-09-25T18:35:59.023Z,100563.78
2022-09-25T18:41:02.993Z,100560.38
2022-09-25T18:46:05.673Z,100559.81
2022-09-25T18:51:07.769Z,100563.53
2022-09-25T18:56:11.581Z,100568.41
2022-09-25T19:01:13.591Z,100572.63
2022-09-25T19:06:16.144Z,100564.16
2022-09-25T19:11:19.813Z,100554.41
2022-09-25T19:16:22.123Z,100555.50
2022-09-25T19:21:24.250Z,100549.31
2022-09-25T19:26:28.127Z,100550.16
2022-09-25T19:31:30.370Z,100549.16
2022-09-25T19:36:33.554Z,100541.19
2022-09-25T19:41:37.347Z,100532.78
2022-09-25T19:46:39.464Z,100536.38
2022-09-25T19:51:41.971Z,100542.72
2022-09-25T19:56:45.383Z,100540.13
2022-09-25T20:01:47.277Z,100525.88
2022-09-25T20:06:49.631Z,100533.06
2022-09-25T20:11:53.166Z,100531.22
2022-09-25T20:16:54.969Z,100528.88
2022-09-25T20:21:57.716Z,100541.25
2022-09-25T20:27:01.087Z,100536.84
2022-09-25T20:32:06.510Z,100528.50
2022-09-25T20:37:08.693Z,100517.16
2022-09-25T20:42:12.592Z,100519.91
2022-09-25T20:47:16.346Z,100521.13
2022-09-25T20:52:18.563Z,100517.47
2022-09-25T20:57:22.130Z,100518.56
2022-09-25T21:02:24.357Z,100520.59
2022-09-25T21:07:26.564Z,100516.34
2022-09-25T21:12:30.001Z,100507.28
2022-09-25T21:17:31.648Z,100504.06
2022-09-25T21:22:33.888Z,100495.38
2022-09-25T21:27:36.936Z,100494.69
2022-09-25T21:32:39.038Z,100485.22
2022-09-25T21:37:40.682Z,100487.09
2022-09-25T21:42:44.192Z,100485.66
2022-09-25T21:47:49.177Z,100485.06
2022-09-25T21:52:51.139Z,100485.94
2022-09-25T21:57:54.499Z,100492.19
2022-09-25T22:02:57.426Z,100479.78
2022-09-25T22:08:00.802Z,100478.28
2022-09-25T22:13:05.207Z,100475.50
2022-09-25T22:18:07.540Z,100475.69
2022-09-25T22:23:09.631Z,100481.84
2022-09-25T22:28:13.217Z,100480.84
2022-09-25T22:33:15.022Z,100477.16
2022-09-25T22:38:17.170Z,100471.91
2022-09-25T22:43:20.784Z,100462.38
2022-09-25T22:48:22.944Z,100463.25
2022-09-25T22:53:25.726Z,100452.56
2022-09-25T22:58:29.217Z,100456.19
2022-09-25T23:03:31.425Z,100451.78
2022-09-25T23:08:33.839Z,100450.22
2022-09-25T23:13:37.122Z,100452.03
2022-09-25T23:18:39.032Z,100441.44
2022-09-25T23:23:41.084Z,100437.84
2022-09-25T23:28:44.352Z,100433.56
2022-09-25T23:33:46.721Z,100437.88
2022-09-25T23:38:49.687Z,100451.53
2022-09-25T23:43:54.480Z,100430.16
2022-09-25T23:48:56.753Z,100426.72
2022-09-25T23:54:00.335Z,100427.69
2022-09-25T23:59:04.623Z,100418.16
